Time;durP1;ratioP1;P1;durP2;ratioP2;P2;SDS_P1;SDS_P2;PMS_P1;PMS_P2;Temp;Humidity;BMP_temperature;BMP_pressure;BME280_temperature;BME280_humidity;BME280_pressure;Samples;Min_cycle;Max_cycle;Signal;HPM_P1;HPM_P2
2022/04/28 00:01:47;;;;;;;12.27;11.02;;;12.30;99.90;;;;;;5074401;28;20020;-51
2022/04/28 00:04:13;;;;;;;17.40;12.45;;;12.40;99.90;;;;;;5077067;28;20051;-51
2022/04/28 00:06:38;;;;;;;13.90;11.63;;;12.40;99.90;;;;;;5077312;28;20028;-50
2022/04/28 00:09:05;;;;;;;12.88;10.60;;;12.40;99.90;;;;;;5080404;28;20036;-49
2022/04/28 00:11:31;;;;;;;14.50;12.05;;;12.40;99.90;;;;;;5076849;28;20383;-50
2022/04/28 00:13:58;;;;;;;14.07;11.88;;;12.40;99.90;;;;;;5076288;28;20028;-50
2022/04/28 00:16:25;;;;;;;15.52;12.82;;;12.30;99.90;;;;;;5078393;28;20103;-50
2022/04/28 00:18:50;;;;;;;16.63;14.10;;;12.20;99.90;;;;;;5077107;28;20456;-49
2022/04/28 00:21:16;;;;;;;13.45;11.52;;;12.20;99.90;;;;;;5080583;28;20024;-51
2022/04/28 00:23:42;;;;;;;11.93;10.60;;;12.10;99.90;;;;;;5077001;28;20028;-50
2022/04/28 00:26:08;;;;;;;17.75;9.90;;;12.10;99.90;;;;;;5080115;28;20545;-50
2022/04/28 00:28:34;;;;;;;12.38;11.02;;;12.10;99.90;;;;;;5057100;28;20032;-50
2022/04/28 00:30:59;;;;;;;12.40;10.38;;;12.00;99.90;;;;;;5077721;28;20036;-50
2022/04/28 00:33:27;;;;;;;11.82;10.55;;;12.10;99.90;;;;;;5042630;28;20036;-51
2022/04/28 00:35:53;;;;;;;11.93;10.68;;;12.20;99.90;;;;;;5078219;28;20036;-50
2022/04/28 00:38:19;;;;;;;12.00;10.70;;;12.20;99.90;;;;;;5076546;28;20029;-51
2022/04/28 00:40:44;;;;;;;13.32;10.48;;;12.20;99.90;;;;;;5078532;28;20042;-50
2022/04/28 00:43:19;;;;;;;12.10;10.25;;;12.10;99.90;;;;;;5075619;28;20093;-50
2022/04/28 00:45:49;;;;;;;10.95;9.63;;;12.10;99.90;;;;;;5074593;28;20032;-51
2022/04/28 00:51:02;;;;;;;10.77;9.32;;;12.10;99.90;;;;;;5076817;28;20031;-50
2022/04/28 00:53:33;;;;;;;13.65;10.27;;;12.10;99.90;;;;;;5077802;28;20486;-49
2022/04/28 00:56:00;;;;;;;10.27;9.27;;;12.10;99.90;;;;;;5074417;28;20541;-49
2022/04/28 00:58:26;;;;;;;9.20;7.90;;;12.10;99.90;;;;;;5078889;28;20031;-50
2022/04/28 01:00:53;;;;;;;10.60;9.38;;;12.00;99.90;;;;;;5075812;28;20036;-50
2022/04/28 01:03:20;;;;;;;11.23;9.60;;;12.00;99.90;;;;;;5072915;28;20047;-49
2022/04/28 01:05:46;;;;;;;10.75;8.52;;;12.00;99.90;;;;;;5078768;28;20024;-49
2022/04/28 01:08:12;;;;;;;11.07;9.32;;;12.00;99.90;;;;;;5078376;28;20468;-51
2022/04/28 01:10:38;;;;;;;10.80;9.70;;;11.90;99.90;;;;;;5079592;28;20093;-52
2022/04/28 01:13:04;;;;;;;11.93;9.57;;;12.00;99.90;;;;;;5057389;28;20523;-50
2022/04/28 01:15:41;;;;;;;11.63;9.18;;;12.00;99.90;;;;;;5075093;28;20024;-51
2022/04/28 01:18:06;;;;;;;11.50;9.63;;;12.00;99.90;;;;;;5075408;28;20021;-49
2022/04/28 01:20:32;;;;;;;10.00;9.00;;;12.00;99.90;;;;;;5060904;28;20032;-49
2022/04/28 01:22:58;;;;;;;10.50;9.40;;;11.90;99.90;;;;;;5076185;28;20037;-51
2022/04/28 01:25:23;;;;;;;11.18;9.50;;;11.90;99.90;;;;;;5080664;28;20475;-51
2022/04/28 01:27:50;;;;;;;11.23;9.45;;;11.80;99.90;;;;;;5076025;28;20028;-52
2022/04/28 01:30:15;;;;;;;14.85;9.98;;;11.90;99.90;;;;;;5077155;28;20038;-51
2022/04/28 01:32:41;;;;;;;11.55;9.85;;;12.00;99.90;;;;;;5077913;28;20096;-51
2022/04/28 01:35:07;;;;;;;12.43;9.23;;;12.00;99.90;;;;;;5060264;28;20594;-50
2022/04/28 01:37:33;;;;;;;10.82;9.73;;;12.00;99.90;;;;;;5058411;28;20036;-51
2022/04/28 01:39:59;;;;;;;13.60;9.82;;;12.00;99.90;;;;;;5079381;28;20039;-52
2022/04/28 01:42:25;;;;;;;11.70;9.73;;;11.90;99.90;;;;;;5075838;28;20033;-51
2022/04/28 01:44:51;;;;;;;15.32;10.52;;;11.90;99.90;;;;;;5056067;28;21602;-50
2022/04/28 01:47:18;;;;;;;10.73;9.45;;;11.80;99.90;;;;;;5075974;28;20024;-50
2022/04/28 01:49:44;;;;;;;11.07;9.60;;;11.70;99.90;;;;;;5075410;28;20498;-49
2022/04/28 01:54:57;;;;;;;11.68;10.45;;;11.70;99.90;;;;;;5073210;28;20052;-51
2022/04/28 01:57:23;;;;;;;10.50;9.35;;;11.70;99.90;;;;;;5075638;28;20032;-51
2022/04/28 01:59:49;;;;;;;11.77;10.13;;;11.70;99.90;;;;;;5078696;28;20115;-50
2022/04/28 02:02:15;;;;;;;13.18;11.32;;;11.70;99.90;;;;;;5073028;28;20207;-49
2022/04/28 02:04:40;;;;;;;13.77;9.75;;;11.60;99.90;;;;;;5077736;28;20107;-51
2022/04/28 02:07:11;;;;;;;12.05;10.23;;;11.60;99.90;;;;;;5075001;28;20021;-51
2022/04/28 02:09:37;;;;;;;12.82;10.02;;;11.60;99.90;;;;;;5076843;28;20111;-50
2022/04/28 02:12:03;;;;;;;13.68;10.80;;;11.50;99.90;;;;;;5057567;28;20119;-50
2022/04/28 02:14:29;;;;;;;12.15;10.15;;;11.50;99.90;;;;;;5052691;28;20032;-49
2022/04/28 02:16:55;;;;;;;13.90;10.95;;;11.60;99.90;;;;;;5023134;28;20053;-50
2022/04/28 02:19:21;;;;;;;12.98;10.85;;;11.60;99.90;;;;;;5077031;28;20035;-50
2022/04/28 02:21:47;;;;;;;12.70;10.65;;;11.70;99.90;;;;;;5074738;28;20078;-50
2022/04/28 02:24:12;;;;;;;13.57;10.80;;;11.70;99.90;;;;;;5074727;28;20117;-50
2022/04/28 02:26:38;;;;;;;11.95;10.75;;;11.80;99.90;;;;;;5073306;28;20028;-51
2022/04/28 02:29:04;;;;;;;12.48;10.30;;;11.90;99.90;;;;;;5047910;28;20037;-50
2022/04/28 02:31:30;;;;;;;12.73;10.68;;;11.90;99.90;;;;;;5080459;28;20532;-50
2022/04/28 02:33:56;;;;;;;14.90;11.48;;;12.00;99.90;;;;;;5074715;28;20135;-49
2022/04/28 02:36:23;;;;;;;13.23;11.18;;;12.10;99.90;;;;;;5075450;28;20074;-51
2022/04/28 02:38:50;;;;;;;13.07;11.32;;;12.10;99.90;;;;;;5078707;28;20440;-51
2022/04/28 02:41:20;;;;;;;13.20;10.98;;;12.10;99.90;;;;;;5074542;28;20114;-51
2022/04/28 02:43:49;;;;;;;12.43;11.13;;;12.20;99.90;;;;;;5075458;28;20365;-49
2022/04/28 02:46:15;;;;;;;12.27;10.40;;;12.30;99.90;;;;;;5075753;28;20111;-51
2022/04/28 02:48:41;;;;;;;13.05;10.68;;;12.30;99.90;;;;;;5074427;28;20107;-50
2022/04/28 02:51:07;;;;;;;13.32;10.13;;;12.30;99.90;;;;;;5077552;28;20078;-51
2022/04/28 02:53:33;;;;;;;11.57;9.88;;;;;;;;;;5074650;28;20441;-49
2022/04/28 02:56:00;;;;;;;11.35;10.07;;;;;;;;;;5075134;28;20387;-50
2022/04/28 02:58:26;;;;;;;12.32;9.65;;;;;;;;;;5077316;28;20090;-51
2022/04/28 03:00:52;;;;;;;12.63;10.10;;;;;;;;;;5076096;28;20471;-50
2022/04/28 03:03:18;;;;;;;12.27;9.48;;;;;;;;;;5073415;28;20545;-49
2022/04/28 03:11:12;;;;;;;12.13;10.25;;;12.10;99.90;;;;;;5080236;28;20039;-50
2022/04/28 03:13:39;;;;;;;12.73;10.77;;;11.90;99.90;;;;;;5077252;28;20028;-49
2022/04/28 03:16:05;;;;;;;12.85;10.60;;;12.00;99.90;;;;;;5076251;28;20594;-49
2022/04/28 03:18:31;;;;;;;11.95;9.90;;;11.90;99.90;;;;;;5072970;28;20103;-49
2022/04/28 03:20:57;;;;;;;14.25;10.43;;;11.70;99.90;;;;;;5077411;28;20107;-50
2022/04/28 03:23:23;;;;;;;13.07;10.32;;;;;;;;;;5076045;28;20028;-50
2022/04/28 03:25:51;;;;;;;11.85;9.80;;;11.50;99.90;;;;;;5077220;28;20115;-50
2022/04/28 03:28:19;;;;;;;14.98;11.35;;;;;;;;;;5075357;28;20039;-49
2022/04/28 03:30:46;;;;;;;12.40;10.73;;;11.40;99.90;;;;;;5077964;28;20012;-51
2022/04/28 03:33:12;;;;;;;12.23;9.95;;;11.50;99.90;;;;;;5069498;28;20036;-49
2022/04/28 03:35:39;;;;;;;11.75;9.63;;;11.40;99.90;;;;;;5075212;28;20020;-50
2022/04/28 03:38:05;;;;;;;12.82;10.45;;;11.40;99.90;;;;;;5077724;28;20077;-49
2022/04/28 03:40:31;;;;;;;13.05;10.57;;;11.50;99.90;;;;;;5075369;28;20079;-50
2022/04/28 03:42:57;;;;;;;11.05;9.95;;;11.40;99.90;;;;;;5073800;28;20113;-50
2022/04/28 03:45:25;;;;;;;11.98;9.85;;;11.50;99.90;;;;;;5057789;28;20480;-50
2022/04/28 03:47:51;;;;;;;12.85;10.20;;;11.60;99.90;;;;;;5073725;28;20060;-51
2022/04/28 03:50:17;;;;;;;10.45;8.93;;;11.70;99.90;;;;;;5075286;28;20032;-50
2022/04/28 03:52:42;;;;;;;10.63;9.52;;;11.70;99.90;;;;;;5074270;28;20041;-50
2022/04/28 03:55:09;;;;;;;13.18;9.50;;;11.70;99.90;;;;;;5070186;28;20037;-50
2022/04/28 03:57:36;;;;;;;13.15;10.63;;;11.80;99.90;;;;;;5039297;28;20424;-51
2022/04/28 04:00:04;;;;;;;11.38;9.23;;;;;;;;;;5055964;28;20041;-49
2022/04/28 04:02:29;;;;;;;10.93;9.35;;;11.80;99.90;;;;;;5073371;28;20039;-50
2022/04/28 04:04:55;;;;;;;9.15;8.20;;;11.90;99.90;;;;;;5075066;28;20433;-49
2022/04/28 04:07:21;;;;;;;13.25;9.90;;;11.80;99.90;;;;;;5074320;28;20395;-51
2022/04/28 04:09:46;;;;;;;12.63;9.60;;;11.90;99.90;;;;;;5074652;28;20034;-50
2022/04/28 04:12:12;;;;;;;9.70;8.35;;;11.90;99.90;;;;;;5068928;28;20040;-50
2022/04/28 04:14:38;;;;;;;10.07;9.00;;;12.00;99.90;;;;;;5075348;28;20031;-49
2022/04/28 04:17:05;;;;;;;10.13;8.82;;;11.90;99.90;;;;;;5051887;28;20051;-49
2022/04/28 04:19:30;;;;;;;13.05;9.27;;;12.00;99.90;;;;;;5073199;28;20111;-51
2022/04/28 04:21:57;;;;;;;12.35;10.10;;;12.00;99.90;;;;;;5075892;28;20111;-51
2022/04/28 04:24:23;;;;;;;13.27;10.48;;;12.10;99.90;;;;;;5073581;28;20041;-50
2022/04/28 04:26:49;;;;;;;25.00;16.83;;;12.20;99.90;;;;;;5072563;28;20051;-50
2022/04/28 04:29:15;;;;;;;25.30;17.42;;;12.20;99.90;;;;;;5071829;28;20039;-50
2022/04/28 04:34:24;;;;;;;29.38;20.40;;;12.10;99.90;;;;;;5069569;28;20371;-50
2022/04/28 04:36:50;;;;;;;17.13;13.10;;;12.20;99.90;;;;;;5070264;28;20048;-50
2022/04/28 04:39:16;;;;;;;20.27;15.52;;;12.30;99.90;;;;;;5077317;28;20418;-51
2022/04/28 04:41:41;;;;;;;13.50;11.07;;;12.30;99.90;;;;;;5070263;28;20047;-50
2022/04/28 04:44:13;;;;;;;12.25;10.55;;;12.30;99.90;;;;;;5072720;28;20495;-50
2022/04/28 04:46:40;;;;;;;11.13;10.00;;;12.30;99.90;;;;;;5067100;28;20037;-51
2022/04/28 04:49:06;;;;;;;11.82;10.50;;;12.20;99.90;;;;;;5071770;28;20032;-49
2022/04/28 04:51:32;;;;;;;10.93;8.90;;;12.30;99.90;;;;;;5050075;28;20040;-51
2022/04/28 04:53:58;;;;;;;18.35;14.55;;;12.30;99.90;;;;;;5071431;28;20114;-51
2022/04/28 04:56:23;;;;;;;11.30;8.80;;;12.30;99.90;;;;;;5074036;28;20016;-50
2022/04/28 04:58:50;;;;;;;9.27;7.90;;;12.40;99.90;;;;;;5073915;28;20540;-51
2022/04/28 05:01:15;;;;;;;13.38;9.57;;;12.40;99.90;;;;;;5074976;28;20036;-50
2022/04/28 05:03:41;;;;;;;11.15;8.25;;;12.40;99.90;;;;;;5074340;28;20037;-51
2022/04/28 05:06:08;;;;;;;13.32;9.00;;;12.40;99.90;;;;;;5051630;28;20041;-55
2022/04/28 05:08:34;;;;;;;10.90;9.65;;;12.40;99.90;;;;;;5073525;28;20376;-54
2022/04/28 05:10:59;;;;;;;11.70;8.50;;;12.50;99.90;;;;;;5076443;28;20066;-55
2022/04/28 05:13:25;;;;;;;13.13;9.60;;;12.30;99.90;;;;;;5073252;28;20396;-55
2022/04/28 05:15:51;;;;;;;13.45;9.25;;;12.40;99.90;;;;;;5086025;28;20028;-54
2022/04/28 05:18:17;;;;;;;11.60;10.10;;;12.40;99.90;;;;;;5083209;28;20093;-55
2022/04/28 05:20:43;;;;;;;13.90;10.23;;;12.40;99.90;;;;;;5085861;28;20131;-55
2022/04/28 05:23:08;;;;;;;11.35;9.88;;;12.40;99.90;;;;;;5085277;28;20047;-59
2022/04/28 05:25:34;;;;;;;12.93;9.25;;;12.40;99.90;;;;;;5080919;28;20028;-58
2022/04/28 05:28:00;;;;;;;10.68;9.57;;;12.40;99.90;;;;;;5055384;28;20518;-57
2022/04/28 05:30:25;;;;;;;12.20;10.13;;;12.50;99.90;;;;;;5080839;28;20420;-60
2022/04/28 05:32:51;;;;;;;9.73;8.73;;;12.50;99.90;;;;;;5051762;28;20090;-58
2022/04/28 05:35:17;;;;;;;11.20;8.43;;;12.50;99.90;;;;;;5090235;28;20109;-58
2022/04/28 05:37:43;;;;;;;11.45;9.18;;;12.50;99.90;;;;;;5092491;28;20027;-59
2022/04/28 05:40:13;;;;;;;14.23;9.60;;;12.50;99.90;;;;;;5093097;28;20051;-57
2022/04/28 05:45:42;;;;;;;11.55;8.32;;;12.40;99.90;;;;;;5032920;28;20115;-57
2022/04/28 05:48:09;;;;;;;15.50;10.57;;;12.40;99.90;;;;;;5004809;28;20044;-57
2022/04/28 05:50:38;;;;;;;9.88;8.13;;;12.50;99.90;;;;;;5032898;28;20127;-58
2022/04/28 05:53:04;;;;;;;12.65;9.57;;;12.60;99.90;;;;;;5032673;28;20489;-57
2022/04/28 05:55:30;;;;;;;14.95;9.85;;;12.60;99.90;;;;;;5016309;28;20033;-58
2022/04/28 05:57:59;;;;;;;11.05;9.95;;;12.60;99.90;;;;;;5032830;28;20378;-58
2022/04/28 06:00:28;;;;;;;12.20;10.02;;;12.60;99.90;;;;;;5016158;28;20437;-56
2022/04/28 06:02:54;;;;;;;11.80;9.38;;;12.60;99.90;;;;;;5032620;28;20513;-57
2022/04/28 06:05:20;;;;;;;11.98;8.98;;;12.60;99.90;;;;;;5032722;28;20033;-57
2022/04/28 06:07:47;;;;;;;10.73;8.45;;;12.50;99.90;;;;;;5032529;28;20429;-58
2022/04/28 06:10:13;;;;;;;12.90;9.85;;;12.60;99.90;;;;;;5032458;28;20037;-59
2022/04/28 06:12:40;;;;;;;11.35;8.40;;;12.50;99.90;;;;;;5032540;28;20155;-58
2022/04/28 06:15:06;;;;;;;12.32;10.35;;;12.50;99.90;;;;;;5032626;28;20092;-57
2022/04/28 06:17:32;;;;;;;13.18;11.00;;;12.50;99.90;;;;;;5015795;28;20037;-57
2022/04/28 06:19:58;;;;;;;13.52;9.75;;;12.60;99.90;;;;;;5051562;28;20060;-58
2022/04/28 06:22:24;;;;;;;14.27;10.65;;;12.50;99.90;;;;;;5072096;28;21927;-58
2022/04/28 06:24:51;;;;;;;12.02;10.30;;;12.60;99.90;;;;;;5074526;28;20496;-59
2022/04/28 06:27:17;;;;;;;13.63;9.90;;;12.50;99.90;;;;;;5073605;28;20415;-58
2022/04/28 06:29:44;;;;;;;13.75;11.30;;;12.60;99.90;;;;;;5049963;28;20041;-59
2022/04/28 06:32:10;;;;;;;13.45;10.65;;;12.60;99.90;;;;;;5071441;28;20028;-58
2022/04/28 06:34:36;;;;;;;13.20;9.55;;;12.70;99.90;;;;;;5081686;28;20489;-58
2022/04/28 06:37:03;;;;;;;14.30;9.57;;;12.70;99.90;;;;;;5037491;28;20036;-57
2022/04/28 06:39:28;;;;;;;12.07;8.75;;;12.70;99.90;;;;;;5071959;28;20020;-57
2022/04/28 06:41:54;;;;;;;13.25;10.35;;;12.80;99.90;;;;;;5072428;28;20093;-59
2022/04/28 06:44:20;;;;;;;12.50;10.35;;;12.70;99.90;;;;;;5072335;28;20133;-57
2022/04/28 06:46:45;;;;;;;13.68;10.90;;;12.80;99.90;;;;;;5073585;28;20032;-56
2022/04/28 06:49:11;;;;;;;12.25;8.65;;;12.90;99.90;;;;;;5072790;28;20048;-58
2022/04/28 06:51:37;;;;;;;13.15;9.88;;;;;;;;;;5072716;28;20020;-58
2022/04/28 06:54:03;;;;;;;12.95;10.88;;;;;;;;;;5071573;28;20040;-58
2022/04/28 06:56:29;;;;;;;15.25;10.82;;;13.40;99.90;;;;;;5072152;28;20031;-59
2022/04/28 06:58:55;;;;;;;13.20;10.13;;;13.50;99.90;;;;;;5071120;28;20032;-57
2022/04/28 07:01:21;;;;;;;14.27;9.55;;;13.50;99.90;;;;;;5070152;28;20028;-58
2022/04/28 07:03:47;;;;;;;11.85;10.50;;;13.40;99.90;;;;;;5072323;28;20036;-58
2022/04/28 07:06:12;;;;;;;10.73;9.13;;;13.40;99.90;;;;;;5072348;28;20093;-57
2022/04/28 07:08:38;;;;;;;9.15;7.18;;;13.10;99.90;;;;;;5053737;28;20063;-59
2022/04/28 07:11:04;;;;;;;11.27;10.18;;;13.00;99.90;;;;;;5072353;28;20379;-59
2022/04/28 07:13:30;;;;;;;15.10;11.00;;;13.20;99.90;;;;;;5071602;28;20594;-56
2022/04/28 07:15:55;;;;;;;11.32;9.38;;;13.40;99.90;;;;;;5072010;28;20162;-57
2022/04/28 07:18:21;;;;;;;11.05;9.20;;;13.40;99.90;;;;;;5071872;28;20111;-56
2022/04/28 07:20:47;;;;;;;11.57;9.45;;;13.30;99.90;;;;;;5072698;28;20024;-58
2022/04/28 07:23:15;;;;;;;14.13;9.50;;;13.40;99.90;;;;;;5020794;28;20086;-58
2022/04/28 07:25:41;;;;;;;14.23;11.48;;;13.60;99.90;;;;;;5071360;28;20032;-48
2022/04/28 07:28:07;;;;;;;13.73;9.38;;;13.70;99.90;;;;;;5071596;28;20017;-56
2022/04/28 07:30:33;;;;;;;9.70;7.93;;;13.40;99.90;;;;;;5002383;28;20468;-61
2022/04/28 07:32:58;;;;;;;11.23;9.77;;;13.40;99.90;;;;;;5070980;28;20052;-53
2022/04/28 07:35:24;;;;;;;11.93;8.40;;;13.60;99.90;;;;;;5071996;28;20456;-54
2022/04/28 07:37:51;;;;;;;10.65;9.55;;;13.70;99.90;;;;;;5071389;28;20166;-56
2022/04/28 07:40:17;;;;;;;12.82;9.13;;;14.20;99.90;;;;;;5071313;28;20043;-56
2022/04/28 07:42:43;;;;;;;12.68;11.13;;;14.10;99.90;;;;;;5071156;28;20028;-53
2022/04/28 07:45:10;;;;;;;12.43;11.15;;;14.40;99.90;;;;;;5071265;28;20471;-57
2022/04/28 07:47:36;;;;;;;11.85;10.57;;;14.20;99.90;;;;;;5068579;28;20045;-54
2022/04/28 07:50:04;;;;;;;14.90;12.05;;;14.50;99.90;;;;;;5071388;28;20111;-54
2022/04/28 07:52:30;;;;;;;10.77;9.73;;;14.70;99.90;;;;;;5052090;28;20040;-54
2022/04/28 07:54:56;;;;;;;10.85;9.63;;;14.90;99.90;;;;;;5071151;28;20492;-57
2022/04/28 07:57:23;;;;;;;12.50;11.07;;;14.90;99.90;;;;;;5069506;28;20115;-54
2022/04/28 07:59:50;;;;;;;10.63;9.52;;;14.50;99.90;;;;;;5071166;28;20041;-58
2022/04/28 08:02:16;;;;;;;11.73;10.20;;;14.40;99.90;;;;;;5071174;28;20032;-53
2022/04/28 08:04:42;;;;;;;11.75;8.60;;;14.30;99.90;;;;;;5052196;28;20037;-52
2022/04/28 08:07:09;;;;;;;12.70;9.75;;;14.20;99.90;;;;;;5071218;28;20507;-59
2022/04/28 08:09:34;;;;;;;14.07;8.80;;;14.30;99.90;;;;;;5052275;28;20112;-55
2022/04/28 08:12:00;;;;;;;12.30;10.60;;;14.20;99.90;;;;;;5071079;28;20107;-57
2022/04/28 08:14:26;;;;;;;12.07;9.98;;;14.10;99.90;;;;;;5068796;28;20040;-54
2022/04/28 08:16:52;;;;;;;13.13;11.50;;;14.10;99.90;;;;;;5052097;28;20043;-57
2022/04/28 08:19:19;;;;;;;11.65;10.13;;;14.20;99.90;;;;;;5071094;28;20108;-54
2022/04/28 08:21:48;;;;;;;11.20;9.63;;;14.40;99.90;;;;;;5071096;28;20423;-54
2022/04/28 08:24:14;;;;;;;13.07;10.85;;;14.50;99.90;;;;;;5071102;28;20078;-57
2022/04/28 08:26:40;;;;;;;13.00;9.18;;;14.50;99.90;;;;;;5074632;28;20046;-57
2022/04/28 08:29:06;;;;;;;13.05;11.30;;;14.50;99.90;;;;;;5074732;28;20040;-58
2022/04/28 08:31:33;;;;;;;9.85;8.20;;;14.60;99.90;;;;;;5074855;28;20107;-54
2022/04/28 08:33:58;;;;;;;13.20;11.00;;;14.40;99.90;;;;;;5055739;28;20068;-58
2022/04/28 08:36:25;;;;;;;12.23;9.52;;;14.50;99.90;;;;;;5074693;28;20496;-48
2022/04/28 08:38:52;;;;;;;12.20;10.60;;;14.60;99.90;;;;;;5074781;28;20025;-59
2022/04/28 08:41:45;;;;;;;12.10;10.82;;;14.80;99.90;;;;;;5074987;28;20028;-57
2022/04/28 08:44:18;;;;;;;;;;;14.90;99.90;;;;;;5073326;28;20036;-57
2022/04/28 08:46:51;;;;;;;10.50;9.18;;;14.80;99.90;;;;;;5073745;28;19905;-55
2022/04/28 08:49:25;;;;;;;10.43;9.38;;;14.60;99.90;;;;;;5074203;28;20024;-58
2022/04/28 08:51:53;;;;;;;11.70;9.52;;;14.40;99.90;;;;;;5064546;28;20561;-48
2022/04/28 08:54:20;;;;;;;11.75;10.18;;;14.10;99.90;;;;;;5071285;28;20040;-51
2022/04/28 08:56:46;;;;;;;6.82;5.20;;;14.20;99.90;;;;;;5073235;28;20086;-55
2022/04/28 08:59:14;;;;;;;16.10;12.02;;;14.00;99.90;;;;;;5071321;28;20033;-48
2022/04/28 09:01:41;;;;;;;14.02;10.32;;;14.20;99.90;;;;;;5053322;28;20098;-45
2022/04/28 09:04:10;;;;;;;18.38;11.88;;;14.30;99.90;;;;;;5074244;28;20064;-45
2022/04/28 09:06:36;;;;;;;14.70;10.40;;;14.40;99.90;;;;;;5073507;28;20036;-45
2022/04/28 09:09:07;;;;;;;12.48;10.07;;;14.50;99.90;;;;;;5071147;28;20036;-52
2022/04/28 09:11:37;;;;;;;15.43;10.40;;;14.40;99.90;;;;;;5019113;28;20071;-48
2022/04/28 09:16:44;;;;;;;12.13;10.82;;;14.40;99.90;;;;;;5071082;28;20051;-58
2022/04/28 09:19:15;;;;;;;13.25;11.85;;;14.50;99.90;;;;;;5069343;28;20116;-51
2022/04/28 09:21:41;;;;;;;14.57;10.43;;;14.40;99.90;;;;;;5069049;28;20461;-51
2022/04/28 09:24:09;;;;;;;21.50;11.95;;;14.20;99.90;;;;;;5053155;28;20574;-50
2022/04/28 09:26:36;;;;;;;13.90;11.43;;;14.10;99.90;;;;;;5070972;28;20028;-52
2022/04/28 09:29:03;;;;;;;14.10;11.20;;;14.10;99.90;;;;;;5037285;28;20044;-49
2022/04/28 09:31:34;;;;;;;12.65;9.07;;;14.00;99.90;;;;;;5070829;28;20025;-53
2022/04/28 09:34:12;;;;;;;16.73;12.52;;;13.90;99.90;;;;;;5068907;28;20605;-52
2022/04/28 09:36:39;;;;;;;15.07;11.40;;;14.00;99.90;;;;;;5068062;28;20191;-53
2022/04/28 09:39:07;;;;;;;22.85;6.88;;;14.20;99.90;;;;;;5032330;28;20105;-47
2022/04/28 09:44:20;;;;;;;13.13;11.75;;;13.90;99.90;;;;;;5050003;28;20551;-50
2022/04/28 09:46:48;;;;;;;14.35;11.02;;;13.90;99.90;;;;;;5050396;28;20427;-52
2022/04/28 09:49:23;;;;;;;13.70;11.70;;;13.80;99.90;;;;;;5033348;28;20033;-54
2022/04/28 09:51:57;;;;;;;14.32;11.18;;;13.80;99.90;;;;;;5050254;28;20065;-52
2022/04/28 09:54:27;;;;;;;12.23;10.50;;;13.80;99.90;;;;;;5050113;28;20481;-52
2022/04/28 09:56:53;;;;;;;14.80;10.68;;;13.90;99.90;;;;;;5048835;28;20090;-51
2022/04/28 09:59:20;;;;;;;14.32;12.23;;;13.80;99.90;;;;;;5001678;28;20512;-55
2022/04/28 10:01:46;;;;;;;16.63;11.68;;;13.80;99.90;;;;;;5033826;28;20037;-50
2022/04/28 10:04:11;;;;;;;13.65;10.32;;;13.90;99.90;;;;;;5050052;28;20087;-55
2022/04/28 10:06:38;;;;;;;15.15;11.95;;;13.80;99.90;;;;;;5049869;28;20495;-51
2022/04/28 10:09:14;;;;;;;13.60;12.18;;;13.90;99.90;;;;;;5051985;28;20052;-51
2022/04/28 10:11:41;;;;;;;13.77;12.23;;;13.90;99.90;;;;;;5071191;28;20025;-53
2022/04/28 10:14:10;;;;;;;15.00;11.60;;;13.90;99.90;;;;;;5072437;28;20028;-50
2022/04/28 10:16:38;;;;;;;14.63;11.75;;;13.80;99.90;;;;;;5072835;28;20028;-52
2022/04/28 10:19:15;;;;;;;12.15;9.38;;;13.90;99.90;;;;;;5072768;28;20031;-50
2022/04/28 10:22:10;;;;;;;13.88;12.35;;;13.80;99.90;;;;;;5070542;28;20059;-50
2022/04/28 10:33:05;;;;;;;12.93;11.60;;;14.10;99.90;;;;;;5072365;28;20043;-54
2022/04/28 10:35:36;;;;;;;19.90;13.98;;;14.10;99.90;;;;;;5052948;28;20039;-50
2022/04/28 10:38:30;;;;;;;14.15;12.73;;;14.20;99.90;;;;;;5053552;28;20036;-53
2022/04/28 10:41:05;;;;;;;15.20;12.30;;;14.30;99.90;;;;;;5071611;28;20495;-53
2022/04/28 10:43:34;;;;;;;13.88;11.90;;;14.20;99.90;;;;;;5068280;28;20403;-49
2022/04/28 10:46:09;;;;;;;18.23;11.32;;;14.20;99.90;;;;;;5035687;28;20031;-51
2022/04/28 10:48:42;;;;;;;13.25;11.27;;;14.20;99.90;;;;;;5070957;28;20066;-49
2022/04/28 10:51:15;;;;;;;14.38;11.48;;;14.00;99.90;;;;;;5070090;28;20468;-54
2022/04/28 10:54:05;;;;;;;14.88;11.25;;;14.00;99.90;;;;;;5069954;28;20056;-53
2022/04/28 10:56:40;;;;;;;13.70;11.02;;;13.90;99.90;;;;;;5070903;28;20391;-53
2022/04/28 10:59:34;;;;;;;16.73;11.90;;;14.00;99.90;;;;;;5071663;28;20024;-52
2022/04/28 11:02:15;;;;;;;14.00;12.50;;;14.00;99.90;;;;;;5068445;28;20023;-49
2022/04/28 11:04:49;;;;;;;13.77;12.38;;;14.10;99.90;;;;;;5069613;28;20036;-53
2022/04/28 11:07:20;;;;;;;18.92;13.38;;;14.00;99.90;;;;;;5069762;28;20020;-51
2022/04/28 11:10:07;;;;;;;19.20;13.57;;;13.80;99.90;;;;;;5089261;28;20028;-50
2022/04/28 11:12:37;;;;;;;18.35;12.48;;;13.80;99.90;;;;;;5014926;28;20041;-52
2022/04/28 11:15:06;;;;;;;14.55;12.68;;;13.70;99.90;;;;;;5019755;28;20056;-51
2022/04/28 11:17:36;;;;;;;12.20;8.98;;;13.70;99.90;;;;;;5019486;28;20062;-52
2022/04/28 11:20:12;;;;;;;16.20;13.05;;;13.60;99.90;;;;;;5018976;28;20101;-53
2022/04/28 11:22:54;;;;;;;19.20;13.35;;;13.60;99.90;;;;;;5018411;28;20029;-51
2022/04/28 11:25:22;;;;;;;14.45;12.63;;;13.70;99.90;;;;;;5019226;28;20045;-50
2022/04/28 11:27:50;;;;;;;18.88;14.05;;;13.70;99.90;;;;;;5019252;28;20069;-53
2022/04/28 11:30:18;;;;;;;17.25;13.20;;;13.80;99.90;;;;;;5017901;28;20081;-56
2022/04/28 11:32:50;;;;;;;13.50;11.80;;;13.80;99.90;;;;;;5000182;28;20026;-54
2022/04/28 11:35:17;;;;;;;16.27;14.13;;;13.70;99.90;;;;;;4998032;28;20041;-54
2022/04/28 11:37:43;;;;;;;16.13;13.23;;;13.80;99.90;;;;;;5000481;28;20421;-51
2022/04/28 11:40:13;;;;;;;20.63;14.30;;;13.80;99.90;;;;;;4998594;28;20035;-54
2022/04/28 11:42:41;;;;;;;18.15;13.95;;;13.90;99.90;;;;;;4980893;28;20045;-54
2022/04/28 11:45:08;;;;;;;16.25;13.60;;;13.90;99.90;;;;;;4995670;28;20045;-52
2022/04/28 11:47:42;;;;;;;15.27;13.10;;;13.90;99.90;;;;;;4977375;28;20034;-55
2022/04/28 11:50:17;;;;;;;15.82;10.75;;;14.00;99.90;;;;;;5023882;28;20036;-51
2022/04/28 11:52:42;;;;;;;15.93;11.50;;;13.80;99.90;;;;;;5046941;28;20047;-53
2022/04/28 11:55:09;;;;;;;16.73;13.15;;;13.90;99.90;;;;;;5048529;28;20021;-50
2022/04/28 11:57:41;;;;;;;15.50;11.95;;;13.90;99.90;;;;;;5015551;28;20501;-49
2022/04/28 12:00:09;;;;;;;18.98;15.52;;;13.90;99.90;;;;;;5051615;28;20104;-49
2022/04/28 12:02:38;;;;;;;17.05;12.52;;;14.00;99.90;;;;;;5036770;28;20045;-50
2022/04/28 12:05:25;;;;;;;10.48;8.30;;;14.30;99.90;;;;;;5053168;28;20063;-50
2022/04/28 12:07:52;;;;;;;31.75;21.73;;;14.20;99.90;;;;;;5053410;28;20473;-50
2022/04/28 12:15:58;;;;;;;11.00;9.45;;;14.60;99.90;;;;;;5075696;28;20109;-50
2022/04/28 12:21:32;;;;;;;13.45;11.48;;;14.60;99.90;;;;;;5076255;28;20478;-50
2022/04/28 12:23:58;;;;;;;12.30;9.70;;;14.50;99.90;;;;;;5075396;28;20083;-50
2022/04/28 12:26:24;;;;;;;13.88;12.18;;;14.50;99.90;;;;;;5073969;28;20448;-50
2022/04/28 12:28:51;;;;;;;14.40;11.85;;;14.50;99.90;;;;;;5075059;28;20032;-50
2022/04/28 12:31:31;;;;;;;19.58;13.13;;;14.60;99.90;;;;;;5075570;28;20028;-50
2022/04/28 12:33:58;;;;;;;25.90;16.42;;;14.60;99.90;;;;;;5075369;28;20032;-50
2022/04/28 12:36:25;;;;;;;17.73;13.27;;;14.70;99.90;;;;;;5056313;28;20040;-50
2022/04/28 12:38:55;;;;;;;14.27;11.18;;;14.50;99.90;;;;;;5075236;28;20024;-50
2022/04/28 12:41:24;;;;;;;16.48;12.48;;;14.60;99.90;;;;;;5075547;28;20067;-50
2022/04/28 12:43:56;;;;;;;17.10;12.80;;;14.40;99.90;;;;;;5056382;28;20108;-50
2022/04/28 12:46:38;;;;;;;18.35;12.23;;;14.30;99.90;;;;;;5074495;28;20036;-50
2022/04/28 12:49:09;;;;;;;35.88;21.30;;;14.00;99.90;;;;;;5075036;28;20060;-50
2022/04/28 12:51:48;;;;;;;17.42;13.48;;;14.20;99.90;;;;;;5075493;28;20102;-50
2022/04/28 12:54:26;;;;;;;20.00;13.82;;;14.20;99.90;;;;;;5074460;28;20056;-50
2022/04/28 12:57:02;;;;;;;15.27;13.45;;;14.10;99.90;;;;;;5074498;28;20038;-50
2022/04/28 12:59:32;;;;;;;15.55;13.55;;;14.30;99.90;;;;;;5075077;28;20081;-50
2022/04/28 13:01:58;;;;;;;22.48;15.02;;;14.40;99.90;;;;;;5074991;28;20020;-50
2022/04/28 13:04:26;;;;;;;15.02;12.05;;;14.40;99.90;;;;;;5022669;28;20056;-50
2022/04/28 13:06:53;;;;;;;14.20;10.90;;;14.30;99.90;;;;;;5074352;28;20056;-50
2022/04/28 13:09:20;;;;;;;21.23;14.50;;;14.30;99.90;;;;;;5074702;28;20020;-50
2022/04/28 13:11:48;;;;;;;16.20;13.27;;;14.30;99.90;;;;;;5074216;28;20053;-50
2022/04/28 13:14:16;;;;;;;17.25;13.50;;;14.20;99.90;;;;;;5074601;28;20033;-50
2022/04/28 13:16:42;;;;;;;16.13;12.00;;;14.30;99.90;;;;;;5074472;28;20115;-50
2022/04/28 13:19:10;;;;;;;16.55;13.60;;;14.30;99.90;;;;;;5074790;28;20025;-50